sensor_id;sensor_type;location;lat;lon;timestamp;pressure;altitude;pressure_sealevel;temperature;humidity
67740;BME280;54536;50.090;14.420;2023-06-10T00:01:37;99170.59;;;21.08;67.44
67740;BME280;54536;50.090;14.420;2023-06-10T00:04:07;99164.47;;;21.01;68.00
67740;BME280;54536;50.090;14.420;2023-06-10T00:06:33;99166.75;;;20.91;68.56
67740;BME280;54536;50.090;14.420;2023-06-10T00:09:03;99179.06;;;20.92;68.40
67740;BME280;54536;50.090;14.420;2023-06-10T00:11:36;99173.56;;;20.80;68.62
67740;BME280;54536;50.090;14.420;2023-06-10T00:14:03;99173.75;;;20.72;68.68
67740;BME280;54536;50.090;14.420;2023-06-10T00:16:29;99182.59;;;20.72;69.23
67740;BME280;54536;50.090;14.420;2023-06-10T00:18:57;99177.88;;;20.74;68.39
67740;BME280;54536;50.090;14.420;2023-06-10T00:21:31;99175.38;;;20.86;68.67
67740;BME280;54536;50.090;14.420;2023-06-10T00:24:04;99183.00;;;20.69;69.26
67740;BME280;54536;50.090;14.420;2023-06-10T00:26:31;99181.78;;;20.72;69.23
67740;BME280;54536;50.090;14.420;2023-06-10T00:29:01;99179.91;;;20.79;68.41
67740;BME280;54536;50.090;14.420;2023-06-10T00:31:27;99182.59;;;20.72;68.56
67740;BME280;54536;50.090;14.420;2023-06-10T00:33:54;99178.69;;;20.68;68.94
67740;BME280;54536;50.090;14.420;2023-06-10T00:36:20;99181.59;;;20.67;69.13
67740;BME280;54536;50.090;14.420;2023-06-10T00:38:47;99184.06;;;20.55;69.50
67740;BME280;54536;50.090;14.420;2023-06-10T00:41:13;99182.81;;;20.64;69.03
67740;BME280;54536;50.090;14.420;2023-06-10T00:43:40;99184.84;;;20.75;68.08
67740;BME280;54536;50.090;14.420;2023-06-10T00:46:06;99189.56;;;20.47;69.62
67740;BME280;54536;50.090;14.420;2023-06-10T00:48:33;99188.78;;;20.60;68.83
67740;BME280;54536;50.090;14.420;2023-06-10T00:50:59;99182.41;;;20.67;68.73
67740;BME280;54536;50.090;14.420;2023-06-10T00:53:28;99176.66;;;20.64;68.37
67740;BME280;54536;50.090;14.420;2023-06-10T00:55:54;99186.50;;;20.56;68.84
67740;BME280;54536;50.090;14.420;2023-06-10T00:58:21;99185.47;;;20.44;69.41
67740;BME280;54536;50.090;14.420;2023-06-10T01:00:47;99184.22;;;20.27;70.24
67740;BME280;54536;50.090;14.420;2023-06-10T01:03:13;99182.56;;;20.32;69.94
67740;BME280;54536;50.090;14.420;2023-06-10T01:05:43;99184.22;;;20.33;69.81
67740;BME280;54536;50.090;14.420;2023-06-10T01:08:35;99188.56;;;20.34;69.70
67740;BME280;54536;50.090;14.420;2023-06-10T01:11:08;99180.53;;;20.28;69.65
67740;BME280;54536;50.090;14.420;2023-06-10T01:13:41;99192.44;;;20.19;69.55
67740;BME280;54536;50.090;14.420;2023-06-10T01:16:09;99195.53;;;20.29;70.46
67740;BME280;54536;50.090;14.420;2023-06-10T01:18:35;99199.63;;;20.18;70.20
67740;BME280;54536;50.090;14.420;2023-06-10T01:21:01;99206.41;;;20.27;70.33
67740;BME280;54536;50.090;14.420;2023-06-10T01:23:29;99208.88;;;20.22;69.89
67740;BME280;54536;50.090;14.420;2023-06-10T01:26:09;99211.31;;;20.24;70.00
67740;BME280;54536;50.090;14.420;2023-06-10T01:29:11;99208.03;;;20.22;70.03
67740;BME280;54536;50.090;14.420;2023-06-10T01:31:49;99212.75;;;20.26;69.82
67740;BME280;54536;50.090;14.420;2023-06-10T01:34:19;99207.41;;;20.20;70.13
67740;BME280;54536;50.090;14.420;2023-06-10T01:36:49;99209.03;;;20.14;70.00
67740;BME280;54536;50.090;14.420;2023-06-10T01:39:20;99212.09;;;19.98;70.31
67740;BME280;54536;50.090;14.420;2023-06-10T01:41:49;99211.94;;;20.13;69.52
67740;BME280;54536;50.090;14.420;2023-06-10T01:44:21;99208.44;;;20.05;69.58
67740;BME280;54536;50.090;14.420;2023-06-10T01:46:47;99215.81;;;20.03;70.30
67740;BME280;54536;50.090;14.420;2023-06-10T01:49:14;99219.47;;;19.89;70.65
67740;BME280;54536;50.090;14.420;2023-06-10T01:51:41;99222.16;;;19.96;70.13
67740;BME280;54536;50.090;14.420;2023-06-10T01:54:07;99219.03;;;19.79;70.76
67740;BME280;54536;50.090;14.420;2023-06-10T01:56:33;99221.28;;;19.75;70.86
67740;BME280;54536;50.090;14.420;2023-06-10T01:59:00;99232.16;;;19.80;70.59
67740;BME280;54536;50.090;14.420;2023-06-10T02:01:26;99235.66;;;19.81;70.53
67740;BME280;54536;50.090;14.420;2023-06-10T02:03:52;99233.38;;;19.78;70.42
67740;BME280;54536;50.090;14.420;2023-06-10T02:06:19;99232.56;;;19.77;70.35
67740;BME280;54536;50.090;14.420;2023-06-10T02:08:46;99224.75;;;19.69;70.59
67740;BME280;54536;50.090;14.420;2023-06-10T02:11:12;99228.84;;;19.72;70.16
67740;BME280;54536;50.090;14.420;2023-06-10T02:13:38;99236.50;;;19.47;71.11
67740;BME280;54536;50.090;14.420;2023-06-10T02:16:04;99233.44;;;19.50;71.25
67740;BME280;54536;50.090;14.420;2023-06-10T02:18:32;99235.75;;;19.59;70.83
67740;BME280;54536;50.090;14.420;2023-06-10T02:20:59;99238.03;;;19.62;70.87
67740;BME280;54536;50.090;14.420;2023-06-10T02:23:25;99237.84;;;19.64;70.72
67740;BME280;54536;50.090;14.420;2023-06-10T02:25:51;99238.22;;;19.61;70.87
67740;BME280;54536;50.090;14.420;2023-06-10T02:28:18;99243.34;;;19.56;70.58
67740;BME280;54536;50.090;14.420;2023-06-10T02:30:44;99247.81;;;19.55;70.75
67740;BME280;54536;50.090;14.420;2023-06-10T02:33:11;99240.41;;;19.51;70.96
67740;BME280;54536;50.090;14.420;2023-06-10T02:35:38;99244.25;;;19.41;71.24
67740;BME280;54536;50.090;14.420;2023-06-10T02:38:05;99249.88;;;19.53;71.15
67740;BME280;54536;50.090;14.420;2023-06-10T02:40:31;99249.06;;;19.53;71.27
67740;BME280;54536;50.090;14.420;2023-06-10T02:42:58;99249.56;;;19.35;71.23
67740;BME280;54536;50.090;14.420;2023-06-10T02:45:25;99246.72;;;19.36;71.43
67740;BME280;54536;50.090;14.420;2023-06-10T02:47:51;99243.25;;;19.42;70.63
67740;BME280;54536;50.090;14.420;2023-06-10T02:50:17;99243.25;;;19.42;70.22
67740;BME280;54536;50.090;14.420;2023-06-10T02:52:44;99241.41;;;19.43;70.08
67740;BME280;54536;50.090;14.420;2023-06-10T02:55:10;99238.53;;;19.45;69.79
67740;BME280;54536;50.090;14.420;2023-06-10T02:57:37;99244.00;;;19.30;70.52
67740;BME280;54536;50.090;14.420;2023-06-10T03:00:03;99245.13;;;19.49;69.82
67740;BME280;54536;50.090;14.420;2023-06-10T03:02:35;99250.63;;;19.40;70.17
67740;BME280;54536;50.090;14.420;2023-06-10T03:05:05;99244.09;;;19.43;70.35
67740;BME280;54536;50.090;14.420;2023-06-10T03:07:31;99248.97;;;19.33;70.45
67740;BME280;54536;50.090;14.420;2023-06-10T03:09:58;99253.00;;;19.29;70.52
67740;BME280;54536;50.090;14.420;2023-06-10T03:12:24;99251.03;;;19.37;70.03
67740;BME280;54536;50.090;14.420;2023-06-10T03:14:50;99248.53;;;19.29;70.44
67740;BME280;54536;50.090;14.420;2023-06-10T03:17:16;99255.53;;;19.37;70.30
67740;BME280;54536;50.090;14.420;2023-06-10T03:19:42;99256.81;;;19.48;69.94
67740;BME280;54536;50.090;14.420;2023-06-10T03:24:35;99260.09;;;19.43;70.32
67740;BME280;54536;50.090;14.420;2023-06-10T03:27:02;99259.56;;;19.26;71.17
67740;BME280;54536;50.090;14.420;2023-06-10T03:29:30;99256.56;;;19.36;70.60
67740;BME280;54536;50.090;14.420;2023-06-10T03:31:56;99255.56;;;19.44;70.30
67740;BME280;54536;50.090;14.420;2023-06-10T03:34:22;99257.34;;;19.30;70.91
67740;BME280;54536;50.090;14.420;2023-06-10T03:36:49;99255.84;;;19.21;71.37
67740;BME280;54536;50.090;14.420;2023-06-10T03:39:16;99256.53;;;19.29;70.87
67740;BME280;54536;50.090;14.420;2023-06-10T03:41:42;99260.56;;;19.25;70.81
67740;BME280;54536;50.090;14.420;2023-06-10T03:44:08;99262.69;;;19.30;70.64
67740;BME280;54536;50.090;14.420;2023-06-10T03:46:35;99268.16;;;19.22;71.07
67740;BME280;54536;50.090;14.420;2023-06-10T03:49:01;99262.78;;;19.15;70.94
67740;BME280;54536;50.090;14.420;2023-06-10T03:51:27;99265.25;;;19.16;70.79
67740;BME280;54536;50.090;14.420;2023-06-10T03:53:53;99270.81;;;19.22;70.67
67740;BME280;54536;50.090;14.420;2023-06-10T03:56:20;99269.78;;;19.23;70.25
67740;BME280;54536;50.090;14.420;2023-06-10T03:58:46;99268.44;;;19.33;70.25
67740;BME280;54536;50.090;14.420;2023-06-10T04:01:12;99266.72;;;19.26;70.79
67740;BME280;54536;50.090;14.420;2023-06-10T04:03:44;99267.19;;;19.29;70.38
67740;BME280;54536;50.090;14.420;2023-06-10T04:06:10;99270.84;;;19.28;69.20
67740;BME280;54536;50.090;14.420;2023-06-10T04:08:36;99275.97;;;19.23;69.28
67740;BME280;54536;50.090;14.420;2023-06-10T04:11:03;99276.50;;;19.12;69.45
67740;BME280;54536;50.090;14.420;2023-06-10T04:13:29;99281.84;;;19.18;68.92
67740;BME280;54536;50.090;14.420;2023-06-10T04:15:55;99280.69;;;19.28;68.57
67740;BME280;54536;50.090;14.420;2023-06-10T04:18:21;99284.81;;;19.30;68.61
67740;BME280;54536;50.090;14.420;2023-06-10T04:20:51;99283.78;;;19.31;68.62
67740;BME280;54536;50.090;14.420;2023-06-10T04:23:17;99282.94;;;19.24;68.49
67740;BME280;54536;50.090;14.420;2023-06-10T04:25:43;99280.94;;;19.33;68.35
67740;BME280;54536;50.090;14.420;2023-06-10T04:28:09;99282.94;;;19.24;68.53
67740;BME280;54536;50.090;14.420;2023-06-10T04:30:36;99281.25;;;19.16;68.67
67740;BME280;54536;50.090;14.420;2023-06-10T04:33:02;99284.09;;;19.15;68.74
67740;BME280;54536;50.090;14.420;2023-06-10T04:35:29;99289.44;;;19.15;68.74
67740;BME280;54536;50.090;14.420;2023-06-10T04:37:55;99287.88;;;19.27;68.79
67740;BME280;54536;50.090;14.420;2023-06-10T04:40:21;99289.09;;;19.25;68.87
67740;BME280;54536;50.090;14.420;2023-06-10T04:42:48;99287.50;;;19.30;68.60
67740;BME280;54536;50.090;14.420;2023-06-10T04:45:15;99290.38;;;19.35;68.39
67740;BME280;54536;50.090;14.420;2023-06-10T04:47:41;99289.56;;;19.35;68.95
67740;BME280;54536;50.090;14.420;2023-06-10T04:50:07;99297.03;;;19.46;67.81
67740;BME280;54536;50.090;14.420;2023-06-10T04:52:33;99299.00;;;19.37;68.17
67740;BME280;54536;50.090;14.420;2023-06-10T04:55:00;99302.75;;;19.43;68.52
67740;BME280;54536;50.090;14.420;2023-06-10T04:57:26;99305.03;;;19.46;67.94
67740;BME280;54536;50.090;14.420;2023-06-10T04:59:53;99300.31;;;19.48;68.54
67740;BME280;54536;50.090;14.420;2023-06-10T05:02:19;99302.41;;;19.53;67.99
67740;BME280;54536;50.090;14.420;2023-06-10T05:04:45;99304.34;;;19.66;67.86
67740;BME280;54536;50.090;14.420;2023-06-10T05:07:12;99297.41;;;19.78;67.42
67740;BME280;54536;50.090;14.420;2023-06-10T05:09:38;99300.13;;;19.84;67.14
67740;BME280;54536;50.090;14.420;2023-06-10T05:12:05;99298.34;;;19.98;66.73
67740;BME280;54536;50.090;14.420;2023-06-10T05:14:32;99296.69;;;19.97;66.73
67740;BME280;54536;50.090;14.420;2023-06-10T05:16:58;99297.06;;;19.94;67.39
67740;BME280;54536;50.090;14.420;2023-06-10T05:19:25;99297.34;;;20.13;66.35
67740;BME280;54536;50.090;14.420;2023-06-10T05:21:51;99301.06;;;20.11;67.06
67740;BME280;54536;50.090;14.420;2023-06-10T05:24:17;99303.38;;;20.28;66.10
67740;BME280;54536;50.090;14.420;2023-06-10T05:26:43;99299.91;;;20.34;65.95
67740;BME280;54536;50.090;14.420;2023-06-10T05:29:10;99303.00;;;20.38;65.54
67740;BME280;54536;50.090;14.420;2023-06-10T05:31:37;99309.94;;;20.32;66.08
67740;BME280;54536;50.090;14.420;2023-06-10T05:34:03;99313.84;;;20.36;65.50
67740;BME280;54536;50.090;14.420;2023-06-10T05:36:29;99320.03;;;20.43;65.81
67740;BME280;54536;50.090;14.420;2023-06-10T05:38:55;99317.16;;;20.45;64.56
67740;BME280;54536;50.090;14.420;2023-06-10T05:41:22;99314.09;;;20.41;64.69
67740;BME280;54536;50.090;14.420;2023-06-10T05:43:48;99318.66;;;20.54;64.66
67740;BME280;54536;50.090;14.420;2023-06-10T05:46:14;99312.69;;;20.58;64.05
67740;BME280;54536;50.090;14.420;2023-06-10T05:48:41;99313.75;;;20.71;63.74
67740;BME280;54536;50.090;14.420;2023-06-10T05:51:07;99315.63;;;20.77;63.34
67740;BME280;54536;50.090;14.420;2023-06-10T05:53:33;99324.84;;;20.74;63.61
67740;BME280;54536;50.090;14.420;2023-06-10T05:55:59;99324.22;;;20.72;63.07
67740;BME280;54536;50.090;14.420;2023-06-10T05:58:26;99325.03;;;20.73;63.36
67740;BME280;54536;50.090;14.420;2023-06-10T06:00:52;99316.63;;;20.83;63.06
67740;BME280;54536;50.090;14.420;2023-06-10T06:03:18;99319.53;;;20.81;63.48
67740;BME280;54536;50.090;14.420;2023-06-10T06:05:44;99321.78;;;20.91;63.37
67740;BME280;54536;50.090;14.420;2023-06-10T06:08:12;99319.94;;;21.18;62.22
67740;BME280;54536;50.090;14.420;2023-06-10T06:10:39;99320.97;;;21.23;62.12
67740;BME280;54536;50.090;14.420;2023-06-10T06:13:05;99316.63;;;21.29;61.65
67740;BME280;54536;50.090;14.420;2023-06-10T06:15:31;99320.53;;;21.26;62.16
67740;BME280;54536;50.090;14.420;2023-06-10T06:17:58;99317.88;;;21.33;61.20
67740;BME280;54536;50.090;14.420;2023-06-10T06:20:24;99322.00;;;21.36;60.94
67740;BME280;54536;50.090;14.420;2023-06-10T06:22:50;99322.41;;;21.39;61.02
67740;BME280;54536;50.090;14.420;2023-06-10T06:25:16;99318.91;;;21.45;60.86
67740;BME280;54536;50.090;14.420;2023-06-10T06:27:43;99324.84;;;21.54;60.25
67740;BME280;54536;50.090;14.420;2023-06-10T06:30:09;99325.25;;;21.58;60.16
67740;BME280;54536;50.090;14.420;2023-06-10T06:32:35;99323.19;;;21.66;59.49
67740;BME280;54536;50.090;14.420;2023-06-10T06:35:02;99321.31;;;21.67;59.88
67740;BME280;54536;50.090;14.420;2023-06-10T06:37:28;99327.28;;;21.76;59.11
67740;BME280;54536;50.090;14.420;2023-06-10T06:39:54;99328.69;;;21.85;58.47
67740;BME280;54536;50.090;14.420;2023-06-10T06:42:20;99327.84;;;21.91;58.71
67740;BME280;54536;50.090;14.420;2023-06-10T06:44:47;99326.56;;;22.00;58.32
67740;BME280;54536;50.090;14.420;2023-06-10T06:47:13;99325.69;;;22.19;58.07
67740;BME280;54536;50.090;14.420;2023-06-10T06:49:39;99325.50;;;22.21;57.74
67740;BME280;54536;50.090;14.420;2023-06-10T06:52:06;99333.22;;;22.36;57.21
67740;BME280;54536;50.090;14.420;2023-06-10T06:54:32;99333.91;;;22.25;57.13
67740;BME280;54536;50.090;14.420;2023-06-10T06:56:59;99353.88;;;22.29;57.13
67740;BME280;54536;50.090;14.420;2023-06-10T06:59:25;99339.63;;;22.35;57.29
67740;BME280;54536;50.090;14.420;2023-06-10T07:01:51;99349.25;;;22.42;56.82
67740;BME280;54536;50.090;14.420;2023-06-10T07:04:19;99358.69;;;22.52;56.81
67740;BME280;54536;50.090;14.420;2023-06-10T07:06:48;99352.25;;;22.59;56.42
67740;BME280;54536;50.090;14.420;2023-06-10T07:09:14;99353.44;;;22.70;55.85
67740;BME280;54536;50.090;14.420;2023-06-10T07:11:41;99355.47;;;22.75;55.69
67740;BME280;54536;50.090;14.420;2023-06-10T07:14:07;99353.25;;;22.65;55.60
67740;BME280;54536;50.090;14.420;2023-06-10T07:16:34;99353.06;;;22.66;55.79
67740;BME280;54536;50.090;14.420;2023-06-10T07:19:00;99363.75;;;22.73;55.61
67740;BME280;54536;50.090;14.420;2023-06-10T07:21:27;99362.66;;;22.81;55.22
67740;BME280;54536;50.090;14.420;2023-06-10T07:23:54;99368.25;;;22.79;55.64
67740;BME280;54536;50.090;14.420;2023-06-10T07:26:23;99365.91;;;22.89;55.04
67740;BME280;54536;50.090;14.420;2023-06-10T07:28:49;99359.09;;;22.94;55.22
67740;BME280;54536;50.090;14.420;2023-06-10T07:31:16;99364.84;;;22.97;54.91
67740;BME280;54536;50.090;14.420;2023-06-10T07:33:42;99357.69;;;23.16;54.11
67740;BME280;54536;50.090;14.420;2023-06-10T07:36:09;99359.97;;;23.37;53.63
67740;BME280;54536;50.090;14.420;2023-06-10T07:38:35;99366.19;;;23.38;53.39
67740;BME280;54536;50.090;14.420;2023-06-10T07:41:02;99365.06;;;23.21;54.11
67740;BME280;54536;50.090;14.420;2023-06-10T07:43:29;99380.97;;;23.22;54.04
67740;BME280;54536;50.090;14.420;2023-06-10T07:45:55;99369.28;;;23.10;54.46
67740;BME280;54536;50.090;14.420;2023-06-10T07:48:21;99371.53;;;23.13;54.38
67740;BME280;54536;50.090;14.420;2023-06-10T07:50:48;99370.91;;;23.11;54.26
67740;BME280;54536;50.090;14.420;2023-06-10T07:53:14;99369.66;;;23.13;54.40
67740;BME280;54536;50.090;14.420;2023-06-10T07:55:40;99374.03;;;23.08;54.41
67740;BME280;54536;50.090;14.420;2023-06-10T07:58:06;99375.03;;;23.13;54.27
67740;BME280;54536;50.090;14.420;2023-06-10T08:00:33;99374.28;;;23.06;54.60
67740;BME280;54536;50.090;14.420;2023-06-10T08:02:59;99377.06;;;22.93;55.04
67740;BME280;54536;50.090;14.420;2023-06-10T08:05:25;99385.69;;;22.95;55.23
67740;BME280;54536;50.090;14.420;2023-06-10T08:07:52;99383.81;;;23.02;55.12
67740;BME280;54536;50.090;14.420;2023-06-10T08:10:18;99378.59;;;23.07;55.27
67740;BME280;54536;50.090;14.420;2023-06-10T08:12:45;99383.56;;;23.04;55.12
67740;BME280;54536;50.090;14.420;2023-06-10T08:15:11;99388.94;;;23.04;55.26
67740;BME280;54536;50.090;14.420;2023-06-10T08:17:37;99389.97;;;23.03;54.97
67740;BME280;54536;50.090;14.420;2023-06-10T08:20:05;99385.25;;;22.98;55.58
67740;BME280;54536;50.090;14.420;2023-06-10T08:22:32;99389.78;;;22.98;55.57
67740;BME280;54536;50.090;14.420;2023-06-10T08:24:59;99396.22;;;22.97;55.33
67740;BME280;54536;50.090;14.420;2023-06-10T08:27:28;99404.84;;;22.99;55.60
67740;BME280;54536;50.090;14.420;2023-06-10T08:29:55;99406.06;;;23.03;54.94
67740;BME280;54536;50.090;14.420;2023-06-10T08:32:21;99402.63;;;22.89;55.30
67740;BME280;54536;50.090;14.420;2023-06-10T08:34:47;99407.13;;;22.95;55.61
67740;BME280;54536;50.090;14.420;2023-06-10T08:37:13;99407.97;;;22.96;55.65
67740;BME280;54536;50.090;14.420;2023-06-10T08:39:39;99405.06;;;22.97;55.30
67740;BME280;54536;50.090;14.420;2023-06-10T08:42:22;99408.94;;;23.01;55.38
67740;BME280;54536;50.090;14.420;2023-06-10T08:44:55;99407.03;;;23.08;55.17
67740;BME280;54536;50.090;14.420;2023-06-10T08:47:23;99405.53;;;23.19;55.13
67740;BME280;54536;50.090;14.420;2023-06-10T08:49:51;99403.88;;;23.18;55.09
67740;BME280;54536;50.090;14.420;2023-06-10T08:52:26;99409.69;;;23.15;55.45
67740;BME280;54536;50.090;14.420;2023-06-10T08:55:05;99411.72;;;23.20;55.28
67740;BME280;54536;50.090;14.420;2023-06-10T08:57:36;99403.81;;;23.25;55.40
67740;BME280;54536;50.090;14.420;2023-06-10T09:00:03;99408.75;;;23.28;55.03
67740;BME280;54536;50.090;14.420;2023-06-10T09:02:31;99396.28;;;23.40;55.07
67740;BME280;54536;50.090;14.420;2023-06-10T09:05:02;99401.16;;;23.50;55.53
67740;BME280;54536;50.090;14.420;2023-06-10T09:07:31;99400.09;;;23.51;55.66
67740;BME280;54536;50.090;14.420;2023-06-10T09:09:57;99392.28;;;23.49;55.62
67740;BME280;54536;50.090;14.420;2023-06-10T09:12:25;99399.22;;;23.57;56.38
67740;BME280;54536;50.090;14.420;2023-06-10T09:14:51;99394.91;;;23.56;55.22
67740;BME280;54536;50.090;14.420;2023-06-10T09:17:17;99397.53;;;23.63;54.49
67740;BME280;54536;50.090;14.420;2023-06-10T09:19:44;99404.91;;;23.67;54.97
67740;BME280;54536;50.090;14.420;2023-06-10T09:22:11;99401.81;;;23.70;55.12
67740;BME280;54536;50.090;14.420;2023-06-10T09:24:38;99409.06;;;23.70;54.69
67740;BME280;54536;50.090;14.420;2023-06-10T09:27:06;99406.59;;;23.68;54.51
67740;BME280;54536;50.090;14.420;2023-06-10T09:29:55;99411.09;;;23.74;54.50
67740;BME280;54536;50.090;14.420;2023-06-10T09:32:24;99414.59;;;23.75;54.52
67740;BME280;54536;50.090;14.420;2023-06-10T09:34:51;99409.81;;;23.77;54.55
67740;BME280;54536;50.090;14.420;2023-06-10T09:37:22;99412.66;;;23.82;54.07
67740;BME280;54536;50.090;14.420;2023-06-10T09:40:08;99414.78;;;23.73;53.71
67740;BME280;54536;50.090;14.420;2023-06-10T09:42:38;99418.97;;;23.69;53.78
67740;BME280;54536;50.090;14.420;2023-06-10T09:45:05;99408.03;;;23.71;53.30
67740;BME280;54536;50.090;14.420;2023-06-10T09:47:32;99416.09;;;23.64;53.33
67740;BME280;54536;50.090;14.420;2023-06-10T09:49:58;99413.41;;;23.64;53.89
67740;BME280;54536;50.090;14.420;2023-06-10T09:52:27;99418.00;;;23.57;55.03
67740;BME280;54536;50.090;14.420;2023-06-10T09:54:58;99412.69;;;23.50;55.64
67740;BME280;54536;50.090;14.420;2023-06-10T09:57:25;99424.88;;;23.53;55.47
67740;BME280;54536;50.090;14.420;2023-06-10T09:59:52;99422.41;;;23.51;56.06
67740;BME280;54536;50.090;14.420;2023-06-10T10:02:20;99414.06;;;23.59;55.55
67740;BME280;54536;50.090;14.420;2023-06-10T10:04:47;99418.38;;;23.60;55.75
67740;BME280;54536;50.090;14.420;2023-06-10T10:07:13;99414.00;;;23.66;54.95
67740;BME280;54536;50.090;14.420;2023-06-10T10:09:41;99413.59;;;23.69;56.02
67740;BME280;54536;50.090;14.420;2023-06-10T10:12:12;99421.97;;;23.79;55.13
67740;BME280;54536;50.090;14.420;2023-06-10T10:14:39;99413.47;;;23.82;54.12
67740;BME280;54536;50.090;14.420;2023-06-10T10:17:10;99407.50;;;23.99;53.23
67740;BME280;54536;50.090;14.420;2023-06-10T10:19:59;99408.94;;;24.01;53.22
67740;BME280;54536;50.090;14.420;2023-06-10T10:22:31;99400.13;;;24.13;52.62
67740;BME280;54536;50.090;14.420;2023-06-10T10:25:03;99392.94;;;24.25;52.83
67740;BME280;54536;50.090;14.420;2023-06-10T10:27:40;99398.41;;;24.37;51.97
67740;BME280;54536;50.090;14.420;2023-06-10T10:30:11;99395.94;;;24.53;51.37
67740;BME280;54536;50.090;14.420;2023-06-10T10:35:21;99391.25;;;24.91;50.66
67740;BME280;54536;50.090;14.420;2023-06-10T10:37:53;99388.09;;;25.24;49.75
67740;BME280;54536;50.090;14.420;2023-06-10T10:40:24;99390.69;;;25.42;50.12
67740;BME280;54536;50.090;14.420;2023-06-10T10:42:52;99392.66;;;25.47;48.77
67740;BME280;54536;50.090;14.420;2023-06-10T10:45:21;99386.59;;;25.52;47.47
67740;BME280;54536;50.090;14.420;2023-06-10T10:47:52;99386.38;;;25.65;46.39
67740;BME280;54536;50.090;14.420;2023-06-10T10:50:21;99384.13;;;25.62;47.10
67740;BME280;54536;50.090;14.420;2023-06-10T10:55:23;99378.16;;;25.60;47.21
67740;BME280;54536;50.090;14.420;2023-06-10T10:57:54;99373.13;;;25.75;46.69
67740;BME280;54536;50.090;14.420;2023-06-10T11:03:08;99378.28;;;25.65;47.05
67740;BME280;54536;50.090;14.420;2023-06-10T11:05:46;99374.44;;;25.84;47.09
67740;BME280;54536;50.090;14.420;2023-06-10T11:11:31;99366.91;;;26.10;46.11
67740;BME280;54536;50.090;14.420;2023-06-10T11:14:06;99359.22;;;26.19;46.06
67740;BME280;54536;50.090;14.420;2023-06-10T11:16:41;99348.09;;;26.27;46.85
67740;BME280;54536;50.090;14.420;2023-06-10T11:19:08;99346.66;;;26.36;46.33
67740;BME280;54536;50.090;14.420;2023-06-10T11:21:58;99355.16;;;26.45;46.11
67740;BME280;54536;50.090;14.420;2023-06-10T11:24:26;99347.00;;;26.28;45.49
67740;BME280;54536;50.090;14.420;2023-06-10T11:26:52;99350.53;;;26.00;45.65
67740;BME280;54536;50.090;14.420;2023-06-10T11:29:19;99344.28;;;25.99;45.63
67740;BME280;54536;50.090;14.420;2023-06-10T11:31:50;99352.97;;;25.89;45.96
67740;BME280;54536;50.090;14.420;2023-06-10T11:34:24;99353.66;;;25.73;46.41
67740;BME280;54536;50.090;14.420;2023-06-10T11:36:52;99354.50;;;25.85;46.63
67740;BME280;54536;50.090;14.420;2023-06-10T11:39:22;99360.84;;;25.91;46.75
67740;BME280;54536;50.090;14.420;2023-06-10T11:41:50;99351.34;;;26.00;46.00
67740;BME280;54536;50.090;14.420;2023-06-10T11:44:17;99354.63;;;26.31;46.28
67740;BME280;54536;50.090;14.420;2023-06-10T11:46:44;99347.13;;;26.33;45.47
67740;BME280;54536;50.090;14.420;2023-06-10T11:49:11;99345.06;;;26.23;45.82
67740;BME280;54536;50.090;14.420;2023-06-10T11:51:40;99338.44;;;26.31;45.44
67740;BME280;54536;50.090;14.420;2023-06-10T11:54:10;99338.56;;;26.36;45.40
67740;BME280;54536;50.090;14.420;2023-06-10T11:56:36;99328.88;;;26.52;45.35
67740;BME280;54536;50.090;14.420;2023-06-10T11:59:04;99330.38;;;26.59;45.40
67740;BME280;54536;50.090;14.420;2023-06-10T12:01:35;99329.44;;;26.82;44.28
67740;BME280;54536;50.090;14.420;2023-06-10T12:04:07;99320.03;;;27.02;44.42
67740;BME280;54536;50.090;14.420;2023-06-10T12:06:48;99320.91;;;26.91;43.58
67740;BME280;54536;50.090;14.420;2023-06-10T12:12:11;99317.47;;;26.61;44.15
67740;BME280;54536;50.090;14.420;2023-06-10T12:14:58;99324.56;;;26.51;44.61
67740;BME280;54536;50.090;14.420;2023-06-10T12:19:58;99316.56;;;27.96;41.00
67740;BME280;54536;50.090;14.420;2023-06-10T12:22:24;99310.38;;;28.77;39.78
67740;BME280;54536;50.090;14.420;2023-06-10T12:25:02;99306.03;;;30.03;36.11
67740;BME280;54536;50.090;14.420;2023-06-10T12:27:31;99307.84;;;30.96;34.61
67740;BME280;54536;50.090;14.420;2023-06-10T12:29:59;99305.34;;;31.56;33.07
67740;BME280;54536;50.090;14.420;2023-06-10T12:32:41;99292.53;;;32.26;31.73
67740;BME280;54536;50.090;14.420;2023-06-10T12:35:10;99295.31;;;33.00;29.86
67740;BME280;54536;50.090;14.420;2023-06-10T12:37:38;99287.81;;;33.40;29.54
67740;BME280;54536;50.090;14.420;2023-06-10T12:40:06;99285.22;;;33.48;28.78
67740;BME280;54536;50.090;14.420;2023-06-10T12:42:36;99276.91;;;33.64;29.35
67740;BME280;54536;50.090;14.420;2023-06-10T12:45:04;99271.09;;;33.46;28.68
67740;BME280;54536;50.090;14.420;2023-06-10T12:47:37;99268.59;;;33.74;29.08
67740;BME280;54536;50.090;14.420;2023-06-10T12:50:07;99272.63;;;33.82;28.04
67740;BME280;54536;50.090;14.420;2023-06-10T12:52:33;99264.25;;;34.16;28.24
67740;BME280;54536;50.090;14.420;2023-06-10T12:55:00;99264.97;;;34.40;28.12
67740;BME280;54536;50.090;14.420;2023-06-10T12:57:27;99257.97;;;34.34;27.61
67740;BME280;54536;50.090;14.420;2023-06-10T12:59:54;99258.56;;;34.31;27.08
67740;BME280;54536;50.090;14.420;2023-06-10T13:02:23;99245.88;;;34.02;27.14
67740;BME280;54536;50.090;14.420;2023-06-10T13:04:50;99244.75;;;33.85;28.34
67740;BME280;54536;50.090;14.420;2023-06-10T13:07:17;99242.78;;;34.28;28.29
67740;BME280;54536;50.090;14.420;2023-06-10T13:09:44;99235.28;;;34.85;27.02
67740;BME280;54536;50.090;14.420;2023-06-10T13:12:10;99254.09;;;34.73;26.89
67740;BME280;54536;50.090;14.420;2023-06-10T13:14:37;99247.75;;;34.59;26.91